createdAt,value
2017-11-18T00:01:50.190Z,26.83
2017-11-18T00:04:17.729Z,26.03
2017-11-18T00:06:45.220Z,23.47
2017-11-18T00:09:12.734Z,26.87
2017-11-18T00:11:40.268Z,26.70
2017-11-18T00:14:07.805Z,24.87
2017-11-18T00:16:36.056Z,25.40
2017-11-18T00:19:03.547Z,26.77
2017-11-18T00:21:31.828Z,26.63
2017-11-18T00:24:00.081Z,27.63
2017-11-18T00:26:27.600Z,24.60
2017-11-18T00:28:55.137Z,25.90
2017-11-18T00:31:22.664Z,25.10
2017-11-18T00:33:50.237Z,28.43
2017-11-18T00:36:17.753Z,29.90
2017-11-18T00:38:45.282Z,28.10
2017-11-18T00:41:13.548Z,31.53
2017-11-18T00:43:41.071Z,31.47
2017-11-18T00:46:08.637Z,29.50
2017-11-18T00:48:36.134Z,30.47
2017-11-18T00:51:03.635Z,32.33
2017-11-18T00:53:31.159Z,31.87
2017-11-18T00:55:58.693Z,34.97
2017-11-18T00:58:26.198Z,31.73
2017-11-18T01:00:53.811Z,31.10
2017-11-18T01:03:21.301Z,29.87
2017-11-18T01:05:48.998Z,36.13
2017-11-18T01:08:17.297Z,33.00
2017-11-18T01:10:44.793Z,33.60
2017-11-18T01:13:12.325Z,33.10
2017-11-18T01:15:39.849Z,31.80
2017-11-18T01:18:07.377Z,30.87
2017-11-18T01:20:34.876Z,31.40
2017-11-18T01:23:02.416Z,27.60
2017-11-18T01:25:29.916Z,30.57
2017-11-18T01:27:57.453Z,31.67
2017-11-18T01:30:24.968Z,29.70
2017-11-18T01:32:52.490Z,30.17
2017-11-18T01:35:19.995Z,29.13
2017-11-18T01:37:47.521Z,31.77
2017-11-18T01:40:15.024Z,36.07
2017-11-18T01:42:42.539Z,34.00
2017-11-18T01:45:10.041Z,31.50
2017-11-18T01:47:37.581Z,28.80
2017-11-18T01:50:05.077Z,31.10
2017-11-18T01:52:32.563Z,32.90
2017-11-18T01:55:00.095Z,27.60
2017-11-18T01:57:28.344Z,30.87
2017-11-18T01:59:55.868Z,31.47
2017-11-18T02:02:35.342Z,30.40
2017-11-18T02:05:02.953Z,29.80
2017-11-18T02:07:30.460Z,31.43
2017-11-18T02:09:57.985Z,27.37
2017-11-18T02:12:25.510Z,26.67
2017-11-18T02:14:53.778Z,25.70
2017-11-18T02:17:21.323Z,26.47
2017-11-18T02:19:48.825Z,25.10
2017-11-18T02:22:17.121Z,25.53
2017-11-18T02:24:45.395Z,26.70
2017-11-18T02:27:13.655Z,27.60
2017-11-18T02:29:41.205Z,32.60
2017-11-18T02:32:08.708Z,29.77
2017-11-18T02:34:36.245Z,28.93
2017-11-18T02:37:03.777Z,27.20
2017-11-18T02:39:31.324Z,28.37
2017-11-18T02:41:58.820Z,25.63
2017-11-18T02:44:26.339Z,27.50
2017-11-18T02:46:53.835Z,26.87
2017-11-18T02:49:21.417Z,28.13
2017-11-18T02:51:48.929Z,26.07
2017-11-18T02:54:16.434Z,27.70
2017-11-18T02:56:43.965Z,27.33
2017-11-18T02:59:11.459Z,27.00
2017-11-18T03:01:38.988Z,27.17
2017-11-18T03:04:06.489Z,27.83
2017-11-18T03:06:34.030Z,25.83
2017-11-18T03:09:01.533Z,24.70
2017-11-18T03:11:29.035Z,26.60
2017-11-18T03:13:56.556Z,23.50
2017-11-18T03:16:24.079Z,26.53
2017-11-18T03:18:51.630Z,24.00
2017-11-18T03:21:19.140Z,25.67
2017-11-18T03:23:46.640Z,25.87
2017-11-18T03:26:15.022Z,25.70
2017-11-18T03:28:42.509Z,25.80
2017-11-18T03:31:10.007Z,23.90
2017-11-18T03:33:37.548Z,25.47
2017-11-18T03:36:05.045Z,27.80
2017-11-18T03:38:32.564Z,26.10
2017-11-18T03:41:00.060Z,27.43
2017-11-18T03:43:27.577Z,26.37
2017-11-18T03:45:55.112Z,27.60
2017-11-18T03:48:22.592Z,25.57
2017-11-18T03:50:50.851Z,27.70
2017-11-18T03:53:19.159Z,28.50
2017-11-18T03:55:46.693Z,30.20
2017-11-18T03:58:14.196Z,27.40
2017-11-18T04:00:47.408Z,26.33
2017-11-18T04:03:14.917Z,28.40
2017-11-18T04:05:42.443Z,27.13
2017-11-18T04:08:09.946Z,25.57
2017-11-18T04:10:38.302Z,26.03
2017-11-18T04:13:05.804Z,26.40
2017-11-18T04:15:34.105Z,27.20
2017-11-18T04:18:01.600Z,28.17
2017-11-18T04:20:29.172Z,28.20
2017-11-18T04:22:56.656Z,25.90
2017-11-18T04:25:24.317Z,28.00
2017-11-18T04:27:51.821Z,26.93
2017-11-18T04:30:19.333Z,28.17
2017-11-18T04:32:46.877Z,27.00
2017-11-18T04:35:14.371Z,27.00
2017-11-18T04:37:42.053Z,27.53
2017-11-18T04:40:10.317Z,29.40
2017-11-18T04:42:37.864Z,25.70
2017-11-18T04:45:05.491Z,29.20
2017-11-18T04:47:33.012Z,28.60
2017-11-18T04:50:00.507Z,26.93
2017-11-18T04:52:28.027Z,27.27
2017-11-18T04:54:55.526Z,28.37
2017-11-18T04:57:23.828Z,27.53
2017-11-18T04:59:51.376Z,27.17
2017-11-18T05:02:19.644Z,26.93
2017-11-18T05:04:47.911Z,26.23
2017-11-18T05:07:15.424Z,30.13
2017-11-18T05:09:42.937Z,27.43
2017-11-18T05:12:10.471Z,29.17
2017-11-18T05:14:38.184Z,28.07
2017-11-18T05:17:06.540Z,25.70
2017-11-18T05:19:34.057Z,25.60
2017-11-18T05:22:01.598Z,25.60
2017-11-18T05:24:29.861Z,26.37
2017-11-18T05:26:57.431Z,27.43
2017-11-18T05:29:25.704Z,25.73
2017-11-18T05:31:53.216Z,24.20
2017-11-18T05:34:20.837Z,27.27
2017-11-18T05:36:48.348Z,24.97
2017-11-18T05:39:15.857Z,27.50
2017-11-18T05:41:43.395Z,26.10
2017-11-18T05:44:10.934Z,29.27
2017-11-18T05:46:38.440Z,28.50
2017-11-18T05:49:05.967Z,28.17
2017-11-18T05:51:33.521Z,27.23
2017-11-18T05:54:01.012Z,25.53
2017-11-18T05:56:28.526Z,26.70
2017-11-18T05:58:56.801Z,26.90
2017-11-18T06:01:25.089Z,24.73
2017-11-18T06:03:53.351Z,22.97
2017-11-18T06:06:20.889Z,25.10
2017-11-18T06:08:49.209Z,23.90
2017-11-18T06:11:17.525Z,22.70
2017-11-18T06:13:45.047Z,22.17
2017-11-18T06:16:13.353Z,23.37
2017-11-18T06:18:40.936Z,24.50
2017-11-18T06:21:08.434Z,24.67
2017-11-18T06:23:35.922Z,24.20
2017-11-18T06:26:04.527Z,23.17
2017-11-18T06:28:32.020Z,21.80
2017-11-18T06:30:59.563Z,21.33
2017-11-18T06:33:27.059Z,23.20
2017-11-18T06:35:54.592Z,21.23
2017-11-18T06:38:22.096Z,21.80
2017-11-18T06:40:49.580Z,25.10
2017-11-18T06:43:17.125Z,22.83
2017-11-18T06:45:44.627Z,23.93
2017-11-18T06:48:12.903Z,22.67
2017-11-18T06:50:41.233Z,24.73
2017-11-18T06:53:08.754Z,23.10
2017-11-18T06:55:36.299Z,22.20
2017-11-18T06:58:03.788Z,22.87
2017-11-18T07:00:31.317Z,22.67
2017-11-18T07:02:59.036Z,24.13
2017-11-18T07:05:26.579Z,23.57
2017-11-18T07:07:54.096Z,23.87
2017-11-18T07:10:21.624Z,24.40
2017-11-18T07:12:49.187Z,27.00
2017-11-18T07:15:16.683Z,24.77
2017-11-18T07:17:44.229Z,21.90
2017-11-18T07:20:11.789Z,24.07
2017-11-18T07:22:39.428Z,23.40
2017-11-18T07:25:06.974Z,21.77
2017-11-18T07:27:35.276Z,20.83
2017-11-18T07:30:02.818Z,22.53
2017-11-18T07:32:31.076Z,23.40
2017-11-18T07:34:58.621Z,22.77
2017-11-18T07:37:26.216Z,22.30
2017-11-18T07:39:53.720Z,25.10
2017-11-18T07:42:21.246Z,21.23
2017-11-18T07:44:49.523Z,22.57
2017-11-18T07:47:17.033Z,26.33
2017-11-18T07:49:44.593Z,24.13
2017-11-18T07:52:12.125Z,24.07
2017-11-18T07:54:40.388Z,26.13
2017-11-18T07:57:07.930Z,24.40
2017-11-18T07:59:35.427Z,26.23
2017-11-18T08:02:03.692Z,24.67
2017-11-18T08:04:31.221Z,23.33
2017-11-18T08:06:58.773Z,25.07
2017-11-18T08:09:26.284Z,22.83
2017-11-18T08:11:53.775Z,23.67
2017-11-18T08:14:22.068Z,24.67
2017-11-18T08:16:49.582Z,20.90
2017-11-18T08:19:17.173Z,21.40
2017-11-18T08:21:44.732Z,23.10
2017-11-18T08:24:12.306Z,21.70
2017-11-18T08:26:40.660Z,23.53
2017-11-18T08:29:08.184Z,23.77
2017-11-18T08:31:35.698Z,20.80
2017-11-18T08:34:04.010Z,25.27
2017-11-18T08:36:36.351Z,24.10
2017-11-18T08:39:04.752Z,21.33
2017-11-18T08:41:33.028Z,21.20
2017-11-18T08:44:01.336Z,20.40
2017-11-18T08:46:28.840Z,22.60
2017-11-18T08:48:56.337Z,20.33
2017-11-18T08:51:23.920Z,20.57
2017-11-18T08:53:51.430Z,20.63
2017-11-18T08:56:18.946Z,21.30
2017-11-18T08:58:46.484Z,21.40
2017-11-18T09:01:14.033Z,19.17
2017-11-18T09:03:41.532Z,19.67
2017-11-18T09:06:09.835Z,20.43
2017-11-18T09:08:37.390Z,19.13
2017-11-18T09:11:04.895Z,21.00
2017-11-18T09:13:32.510Z,19.23
2017-11-18T09:16:00.012Z,21.47
2017-11-18T09:18:27.555Z,21.30
2017-11-18T09:20:55.061Z,19.00
2017-11-18T09:23:22.582Z,19.00
2017-11-18T09:25:50.097Z,21.23
2017-11-18T09:28:17.667Z,20.73
2017-11-18T09:30:45.655Z,18.50
2017-11-18T09:33:13.990Z,17.67
2017-11-18T09:35:41.491Z,18.83
2017-11-18T09:38:08.988Z,17.27
2017-11-18T09:40:36.559Z,19.70
2017-11-18T09:43:04.061Z,18.80
2017-11-18T09:45:31.595Z,17.13
2017-11-18T09:47:59.113Z,18.80
2017-11-18T09:50:26.639Z,17.83
2017-11-18T09:52:54.187Z,17.87
2017-11-18T09:55:21.769Z,18.63
2017-11-18T09:57:49.299Z,16.23
2017-11-18T10:00:16.787Z,16.90
2017-11-18T10:02:44.324Z,19.53
2017-11-18T10:05:12.095Z,17.50
2017-11-18T10:07:39.677Z,17.93
2017-11-18T10:10:07.205Z,16.03
2017-11-18T10:12:34.700Z,17.60
2017-11-18T10:15:02.254Z,18.50
2017-11-18T10:17:29.764Z,15.23
2017-11-18T10:19:57.287Z,15.67
2017-11-18T10:22:24.814Z,13.97
2017-11-18T10:24:53.110Z,14.87
2017-11-18T10:27:21.364Z,14.53
2017-11-18T10:29:48.885Z,12.17
2017-11-18T10:32:16.377Z,11.30
2017-11-18T10:34:43.917Z,12.13
2017-11-18T10:37:11.424Z,10.10
2017-11-18T10:39:38.955Z,10.77
2017-11-18T10:42:06.445Z,10.97
2017-11-18T10:44:33.980Z,11.73
2017-11-18T10:47:01.491Z,12.33
2017-11-18T10:49:30.036Z,8.57
2017-11-18T10:51:57.607Z,11.00
2017-11-18T10:54:25.131Z,9.80
2017-11-18T10:59:19.256Z,7.87
2017-11-18T11:01:47.271Z,10.80
2017-11-18T11:04:15.275Z,9.00
2017-11-18T11:06:43.319Z,8.73
2017-11-18T11:09:11.604Z,9.43
2017-11-18T11:11:39.420Z,8.67
2017-11-18T11:14:06.977Z,10.13
2017-11-18T11:16:34.516Z,10.00
2017-11-18T11:19:02.820Z,8.50
2017-11-18T11:21:30.329Z,8.80
2017-11-18T11:23:57.866Z,8.60
2017-11-18T11:26:25.383Z,7.20
2017-11-18T11:28:53.683Z,7.90
2017-11-18T11:31:21.209Z,7.83
2017-11-18T11:33:48.716Z,7.17
2017-11-18T11:36:16.289Z,5.70
2017-11-18T11:38:43.792Z,7.30
2017-11-18T11:41:11.296Z,5.50
2017-11-18T11:43:38.835Z,5.47
2017-11-18T11:46:07.131Z,4.00
2017-11-18T11:48:35.397Z,6.80
2017-11-18T11:51:02.934Z,6.40
2017-11-18T11:53:30.460Z,7.00
2017-11-18T11:55:58.172Z,6.80
2017-11-18T11:58:25.681Z,6.10
2017-11-18T12:00:53.177Z,7.73
2017-11-18T12:03:20.724Z,7.67
2017-11-18T12:05:48.252Z,7.40
2017-11-18T12:08:16.515Z,7.07
2017-11-18T12:10:44.054Z,8.10
2017-11-18T12:13:11.596Z,7.17
2017-11-18T12:15:39.084Z,6.37
2017-11-18T12:18:06.590Z,7.33
2017-11-18T12:20:34.902Z,6.13
2017-11-18T12:23:02.525Z,6.47
2017-11-18T12:25:30.064Z,6.40
2017-11-18T12:27:57.557Z,5.83
2017-11-18T12:30:25.845Z,6.40
2017-11-18T12:32:54.161Z,6.90
2017-11-18T12:35:21.707Z,7.37
2017-11-18T12:37:49.234Z,5.30
2017-11-18T12:40:16.770Z,6.30
2017-11-18T12:42:44.308Z,6.93
2017-11-18T12:45:11.816Z,6.00
2017-11-18T12:47:39.320Z,6.57
2017-11-18T12:50:06.863Z,7.27
2017-11-18T12:52:34.392Z,5.93
2017-11-18T12:55:01.922Z,12.73
2017-11-18T12:57:29.736Z,9.90
2017-11-18T12:59:57.264Z,9.07
2017-11-18T13:02:24.765Z,7.27
2017-11-18T13:04:52.292Z,7.20
2017-11-18T13:07:19.794Z,6.70
2017-11-18T13:09:47.322Z,7.07
2017-11-18T13:12:14.811Z,7.40
2017-11-18T13:14:42.352Z,7.83
2017-11-18T13:17:09.837Z,8.83
2017-11-18T13:19:37.365Z,7.23
2017-11-18T13:22:04.851Z,7.10
2017-11-18T13:24:32.630Z,6.97
2017-11-18T13:27:00.195Z,7.27
2017-11-18T13:29:27.678Z,6.90
2017-11-18T13:31:55.293Z,6.47
2017-11-18T13:34:22.840Z,5.47
2017-11-18T13:36:50.327Z,6.53
2017-11-18T13:39:17.876Z,7.77
2017-11-18T13:41:45.362Z,6.43
2017-11-18T13:44:12.852Z,6.60
2017-11-18T13:46:40.424Z,6.23
2017-11-18T13:49:07.928Z,6.47
2017-11-18T13:51:35.412Z,7.73
2017-11-18T13:54:02.929Z,5.90
2017-11-18T13:56:31.199Z,5.07
2017-11-18T13:58:58.730Z,6.00
2017-11-18T14:01:26.242Z,7.30
2017-11-18T14:03:54.535Z,6.10
2017-11-18T14:06:22.045Z,6.37
2017-11-18T14:08:49.569Z,5.70
2017-11-18T14:11:17.091Z,7.13
2017-11-18T14:13:44.586Z,6.07
2017-11-18T14:16:12.128Z,10.47
2017-11-18T14:18:40.396Z,8.47
2017-11-18T14:21:07.931Z,6.13
2017-11-18T14:23:35.456Z,7.53
2017-11-18T14:26:03.752Z,6.50
2017-11-18T14:28:31.258Z,6.60
2017-11-18T14:30:58.765Z,6.37
2017-11-18T14:33:26.263Z,5.93
2017-11-18T14:35:53.815Z,6.17
2017-11-18T14:38:21.302Z,6.33
2017-11-18T14:40:48.837Z,6.53
2017-11-18T14:43:16.328Z,6.93
2017-11-18T14:45:43.828Z,6.97
2017-11-18T14:48:11.373Z,7.10
2017-11-18T14:50:38.882Z,6.80
2017-11-18T14:53:06.422Z,7.17
2017-11-18T14:55:34.671Z,6.40
2017-11-18T14:58:02.896Z,6.27
2017-11-18T15:00:30.428Z,6.40
2017-11-18T15:02:58.168Z,6.00
2017-11-18T15:05:26.469Z,6.53
2017-11-18T15:07:54.035Z,7.17
2017-11-18T15:10:21.533Z,6.83
2017-11-18T15:12:49.792Z,6.03
2017-11-18T15:15:32.196Z,5.90
2017-11-18T15:18:05.253Z,6.93
2017-11-18T15:20:39.229Z,6.23
2017-11-18T15:26:16.034Z,6.70
2017-11-18T15:28:49.414Z,6.20
2017-11-18T15:31:35.752Z,7.30
2017-11-18T15:34:03.780Z,7.10
2017-11-18T15:36:34.721Z,8.67
2017-11-18T15:39:03.852Z,7.47
2017-11-18T15:41:31.357Z,6.80
2017-11-18T15:44:12.412Z,7.57
2017-11-18T15:49:45.935Z,8.60
2017-11-18T15:52:13.733Z,10.53
2017-11-18T15:54:41.350Z,10.23
2017-11-18T15:57:09.092Z,9.57
2017-11-18T15:59:36.834Z,10.10
2017-11-18T16:02:04.732Z,7.77
2017-11-18T16:04:32.873Z,9.20
2017-11-18T16:07:00.933Z,9.40
2017-11-18T16:09:29.566Z,8.70
2017-11-18T16:11:57.484Z,8.93
2017-11-18T16:14:27.145Z,9.57
2017-11-18T16:16:55.105Z,8.27
2017-11-18T16:19:23.314Z,7.37
2017-11-18T16:21:52.199Z,9.57
2017-11-18T16:24:19.965Z,8.03
2017-11-18T16:26:47.927Z,8.50
2017-11-18T16:29:16.114Z,6.67
2017-11-18T16:31:43.984Z,6.63
2017-11-18T16:34:11.612Z,7.80
2017-11-18T16:36:41.061Z,6.97
2017-11-18T16:39:08.910Z,6.03
2017-11-18T16:41:36.806Z,6.90
2017-11-18T16:44:04.696Z,6.40
2017-11-18T16:46:32.864Z,6.73
2017-11-18T16:49:00.636Z,6.97
2017-11-18T16:51:28.989Z,6.77
2017-11-18T16:53:57.072Z,7.47
2017-11-18T16:56:25.051Z,6.57
2017-11-18T16:58:52.930Z,6.37
2017-11-18T17:01:20.963Z,6.33
2017-11-18T17:03:50.018Z,6.70
2017-11-18T17:06:17.946Z,5.87
2017-11-18T17:08:46.040Z,4.40
2017-11-18T17:11:14.063Z,5.40
2017-11-18T17:13:41.806Z,6.10
2017-11-18T17:16:09.644Z,5.53
2017-11-18T17:18:38.002Z,6.13
2017-11-18T17:21:06.598Z,5.13
2017-11-18T17:23:34.333Z,5.50
2017-11-18T17:26:02.289Z,6.27
2017-11-18T17:28:30.415Z,7.00
2017-11-18T17:30:58.639Z,5.70
2017-11-18T17:33:26.586Z,6.60
2017-11-18T17:35:55.233Z,7.57
2017-11-18T17:38:23.878Z,5.63
2017-11-18T17:40:51.664Z,6.47
2017-11-18T17:43:19.670Z,5.03
2017-11-18T17:45:47.594Z,6.53
2017-11-18T17:48:15.376Z,6.23
2017-11-18T17:50:44.333Z,7.60
2017-11-18T17:53:12.235Z,6.60
2017-11-18T17:55:40.010Z,8.10
2017-11-18T17:58:07.798Z,7.60
2017-11-18T18:00:35.647Z,7.40
2017-11-18T18:03:03.688Z,7.60
2017-11-18T18:05:32.213Z,6.87
2017-11-18T18:08:00.308Z,7.10
2017-11-18T18:10:28.467Z,7.43
2017-11-18T18:12:56.202Z,7.03
2017-11-18T18:15:24.213Z,7.50
2017-11-18T18:17:52.289Z,6.63
2017-11-18T18:20:20.101Z,7.73
2017-11-18T18:22:48.528Z,7.67
2017-11-18T18:25:16.721Z,8.83
2017-11-18T18:27:45.200Z,8.43
2017-11-18T18:30:14.306Z,8.63
2017-11-18T18:32:42.463Z,9.53
2017-11-18T18:35:11.230Z,8.20
2017-11-18T18:37:38.943Z,7.17
2017-11-18T18:40:06.816Z,10.53
2017-11-18T18:42:35.157Z,7.00
2017-11-18T18:45:04.005Z,6.97
2017-11-18T18:47:32.205Z,6.60
2017-11-18T18:50:00.898Z,6.40
2017-11-18T18:52:28.761Z,6.97
2017-11-18T18:54:56.823Z,6.90
2017-11-18T18:57:24.680Z,7.97
2017-11-18T18:59:52.662Z,7.87
2017-11-18T19:02:20.628Z,6.50
2017-11-18T19:04:48.474Z,6.17
2017-11-18T19:07:16.359Z,8.47
2017-11-18T19:09:44.323Z,5.73
2017-11-18T19:12:13.154Z,7.70
2017-11-18T19:14:40.959Z,6.40
2017-11-18T19:17:09.619Z,7.93
2017-11-18T19:19:37.328Z,11.60
2017-11-18T19:22:05.308Z,7.50
2017-11-18T19:24:33.094Z,6.53
2017-11-18T19:27:00.804Z,7.43
2017-11-18T19:29:28.879Z,7.30
2017-11-18T19:31:56.977Z,6.70
2017-11-18T19:34:25.717Z,7.43
2017-11-18T19:36:53.447Z,7.10
2017-11-18T19:39:22.108Z,7.80
2017-11-18T19:41:50.046Z,7.27
2017-11-18T19:44:17.800Z,8.97
2017-11-18T19:46:45.975Z,6.57
2017-11-18T19:49:13.854Z,7.07
2017-11-18T19:51:41.619Z,6.80
2017-11-18T19:54:09.353Z,7.60
2017-11-18T19:56:38.199Z,10.00
2017-11-18T19:59:05.819Z,6.93
2017-11-18T20:01:34.437Z,8.00
2017-11-18T20:04:02.488Z,6.93
2017-11-18T20:06:30.503Z,7.33
2017-11-18T20:08:58.574Z,7.03
2017-11-18T20:11:26.433Z,6.13
2017-11-18T20:13:54.622Z,7.63
2017-11-18T20:16:23.472Z,7.50
2017-11-18T20:18:52.176Z,6.00
2017-11-18T20:21:21.007Z,7.27
2017-11-18T20:23:48.908Z,6.20
2017-11-18T20:26:16.776Z,6.13
2017-11-18T20:28:44.592Z,6.13
2017-11-18T20:31:12.467Z,6.70
2017-11-18T20:33:40.352Z,8.67
2017-11-18T20:36:08.345Z,8.83
2017-11-18T20:38:36.243Z,5.70
2017-11-18T20:41:04.289Z,4.97
2017-11-18T20:43:32.349Z,5.97
2017-11-18T20:46:00.228Z,6.00
2017-11-18T20:48:27.884Z,5.30
2017-11-18T20:50:55.829Z,6.50
2017-11-18T20:53:24.457Z,6.30
2017-11-18T20:55:52.205Z,5.77
2017-11-18T20:58:20.249Z,3.80
2017-11-18T21:00:48.772Z,7.07
2017-11-18T21:03:16.987Z,7.50
2017-11-18T21:05:44.725Z,7.17
2017-11-18T21:08:12.867Z,20.50
2017-11-18T21:10:41.627Z,6.97
2017-11-18T21:13:09.396Z,6.07
2017-11-18T21:15:37.458Z,7.53
2017-11-18T21:18:05.424Z,5.70
2017-11-18T21:20:33.187Z,6.30
2017-11-18T21:23:01.471Z,6.23
2017-11-18T21:25:29.850Z,6.20
2017-11-18T21:27:57.930Z,6.80
2017-11-18T21:30:25.753Z,6.40
2017-11-18T21:32:54.940Z,5.70
2017-11-18T21:35:22.761Z,6.70
2017-11-18T21:37:50.613Z,6.37
2017-11-18T21:40:18.498Z,7.00
2017-11-18T21:42:48.256Z,5.87
2017-11-18T21:45:16.312Z,6.53
2017-11-18T21:47:44.058Z,7.17
2017-11-18T21:50:12.192Z,8.07
2017-11-18T21:52:39.977Z,8.60
2017-11-18T21:55:08.564Z,6.30
2017-11-18T21:57:36.613Z,5.97
2017-11-18T22:00:05.129Z,7.50
2017-11-18T22:02:33.808Z,6.27
2017-11-18T22:05:02.651Z,4.73
2017-11-18T22:07:30.718Z,8.20
2017-11-18T22:09:58.711Z,6.40
2017-11-18T22:12:26.672Z,7.40
2017-11-18T22:14:54.583Z,7.20
2017-11-18T22:17:22.709Z,6.50
2017-11-18T22:19:50.555Z,7.03
2017-11-18T22:22:18.676Z,7.67
2017-11-18T22:24:46.819Z,7.07
2017-11-18T22:27:14.926Z,7.40
2017-11-18T22:29:43.750Z,7.37
2017-11-18T22:32:11.833Z,7.03
2017-11-18T22:34:39.870Z,6.80
2017-11-18T22:37:07.606Z,7.10
2017-11-18T22:39:35.552Z,7.27
2017-11-18T22:42:04.012Z,6.97
2017-11-18T22:44:32.185Z,6.53
2017-11-18T22:46:59.775Z,8.07
2017-11-18T22:49:27.521Z,7.40
2017-11-18T22:51:55.272Z,6.87
2017-11-18T22:54:23.160Z,7.10
2017-11-18T22:56:51.142Z,6.23
2017-11-18T22:59:18.995Z,5.87
2017-11-18T23:01:46.725Z,5.63
2017-11-18T23:04:15.253Z,5.73
2017-11-18T23:06:43.120Z,5.60
2017-11-18T23:09:11.329Z,6.47
2017-11-18T23:11:39.458Z,5.80
2017-11-18T23:14:07.622Z,7.70
2017-11-18T23:16:36.258Z,6.30
2017-11-18T23:19:04.434Z,5.50
2017-11-18T23:21:33.216Z,6.17
2017-11-18T23:24:01.237Z,8.60
2017-11-18T23:26:30.026Z,5.77
2017-11-18T23:28:57.752Z,5.50
2017-11-18T23:31:25.825Z,5.53
2017-11-18T23:33:53.809Z,6.57
2017-11-18T23:36:21.772Z,6.63
2017-11-18T23:38:49.959Z,6.47
2017-11-18T23:41:18.131Z,5.73
2017-11-18T23:43:46.164Z,6.00
2017-11-18T23:46:14.585Z,7.30
2017-11-18T23:48:42.765Z,7.00
2017-11-18T23:51:10.707Z,6.37
2017-11-18T23:53:39.576Z,7.30
2017-11-18T23:56:07.365Z,7.70
2017-11-18T23:58:35.122Z,7.40
